CheckWX is a tool to help pilots better visualize weather data.  It is not intended as a substitute for an official pre-flight weather briefing.

20:12:22 UTC

KRNT METAR
Renton Municipal Airport
Renton, Washington, USA
Current

19 mins ago

KRNT 231953Z 17010G16KT 10SM BKN042 OVC049 16/09 A3018 RMK AO2 SLP225 T01560089
Observed
Apr-23 @ 19:53 UTC
Wind
  • 170° at 10 KTS
  • Gusting to 16 KTS
Visibility
10 SM
Flight Rules
VFR
Cloud Levels
  • Broken at 4,200' AGL
  • Overcast at 4,900' AGL
Temperature
16°C / 61°F
Dewpoint
C / 48°F
Humidity
63%
Altimeter
30.18" Hg
Pressure
1022.02 hPa
Previous

1 hour ago

KRNT 231853Z 19008KT 10SM OVC050 16/09 A3018 RMK AO2 SLP226 T01560094
Observed
Apr-23 @ 18:53 UTC
Wind
  • 190° at 8 KTS
Visibility
10 SM
Flight Rules
VFR
Cloud Levels
  • Overcast at 5,000' AGL
Temperature
16°C / 61°F
Dewpoint
C / 48°F
Humidity
63%
Altimeter
30.18" Hg
Pressure
1022.02 hPa
Previous

2 hours ago

KRNT 231753Z 20008KT 170V230 10SM OVC050 14/09 A3019 RMK AO2 SLP227 T01440094 10150 20122 53003
Observed
Apr-23 @ 17:53 UTC
Wind
  • 200° at 8 KTS
Visibility
10 SM
Flight Rules
VFR
Cloud Levels
  • Overcast at 5,000' AGL
Temperature
14°C / 57°F
Dewpoint
C / 48°F
Humidity
72%
Altimeter
30.19" Hg
Pressure
1022.32 hPa